sensor_id;sensor_type;location;lat;lon;timestamp;temperature;humidity
81307;DHT22;70775;50.846;3.224;2023-06-26T00:01:32;20.20;69.10
81307;DHT22;70775;50.846;3.224;2023-06-26T00:03:59;20.30;69.40
81307;DHT22;70775;50.846;3.224;2023-06-26T00:06:25;20.10;69.80
81307;DHT22;70775;50.846;3.224;2023-06-26T00:08:52;20.10;70.20
81307;DHT22;70775;50.846;3.224;2023-06-26T00:11:19;20.00;70.80
81307;DHT22;70775;50.846;3.224;2023-06-26T00:13:44;20.00;70.60
81307;DHT22;70775;50.846;3.224;2023-06-26T00:16:10;20.10;70.70
81307;DHT22;70775;50.846;3.224;2023-06-26T00:18:35;20.10;70.50
81307;DHT22;70775;50.846;3.224;2023-06-26T00:21:01;20.10;70.90
81307;DHT22;70775;50.846;3.224;2023-06-26T00:23:26;20.10;70.80
81307;DHT22;70775;50.846;3.224;2023-06-26T00:25:56;20.10;71.10
81307;DHT22;70775;50.846;3.224;2023-06-26T00:28:22;20.20;70.70
81307;DHT22;70775;50.846;3.224;2023-06-26T00:30:47;20.00;71.30
81307;DHT22;70775;50.846;3.224;2023-06-26T00:33:13;19.90;72.10
81307;DHT22;70775;50.846;3.224;2023-06-26T00:35:39;19.90;72.00
81307;DHT22;70775;50.846;3.224;2023-06-26T00:38:04;19.90;72.30
81307;DHT22;70775;50.846;3.224;2023-06-26T00:40:30;19.80;72.80
81307;DHT22;70775;50.846;3.224;2023-06-26T00:42:55;19.60;73.40
81307;DHT22;70775;50.846;3.224;2023-06-26T00:45:21;19.60;73.60
81307;DHT22;70775;50.846;3.224;2023-06-26T00:47:47;19.60;73.90
81307;DHT22;70775;50.846;3.224;2023-06-26T00:50:13;19.60;73.80
81307;DHT22;70775;50.846;3.224;2023-06-26T00:52:41;19.50;74.40
81307;DHT22;70775;50.846;3.224;2023-06-26T00:55:07;19.50;74.50
81307;DHT22;70775;50.846;3.224;2023-06-26T00:57:33;19.40;74.90
81307;DHT22;70775;50.846;3.224;2023-06-26T01:00:00;19.40;74.80
81307;DHT22;70775;50.846;3.224;2023-06-26T01:02:26;19.40;74.90
81307;DHT22;70775;50.846;3.224;2023-06-26T01:04:54;19.40;75.20
81307;DHT22;70775;50.846;3.224;2023-06-26T01:07:20;19.40;75.10
81307;DHT22;70775;50.846;3.224;2023-06-26T01:09:48;19.30;75.40
81307;DHT22;70775;50.846;3.224;2023-06-26T01:12:14;19.20;76.00
81307;DHT22;70775;50.846;3.224;2023-06-26T01:14:40;19.10;76.40
81307;DHT22;70775;50.846;3.224;2023-06-26T01:17:07;19.00;76.90
81307;DHT22;70775;50.846;3.224;2023-06-26T01:19:33;19.10;76.70
81307;DHT22;70775;50.846;3.224;2023-06-26T01:28:25;18.80;77.70
81307;DHT22;70775;50.846;3.224;2023-06-26T01:30:51;18.80;77.90
81307;DHT22;70775;50.846;3.224;2023-06-26T01:33:17;18.70;78.30
81307;DHT22;70775;50.846;3.224;2023-06-26T01:35:44;18.60;79.10
81307;DHT22;70775;50.846;3.224;2023-06-26T01:40:39;18.60;79.10
81307;DHT22;70775;50.846;3.224;2023-06-26T01:43:24;18.50;80.30
81307;DHT22;70775;50.846;3.224;2023-06-26T01:45:54;18.50;79.30
81307;DHT22;70775;50.846;3.224;2023-06-26T01:48:23;18.40;79.40
81307;DHT22;70775;50.846;3.224;2023-06-26T01:50:52;18.50;79.50
81307;DHT22;70775;50.846;3.224;2023-06-26T01:53:21;18.50;79.20
81307;DHT22;70775;50.846;3.224;2023-06-26T01:56:08;18.40;79.50
81307;DHT22;70775;50.846;3.224;2023-06-26T01:58:39;18.40;79.70
81307;DHT22;70775;50.846;3.224;2023-06-26T02:01:06;18.20;80.40
81307;DHT22;70775;50.846;3.224;2023-06-26T02:03:32;18.20;80.50
81307;DHT22;70775;50.846;3.224;2023-06-26T02:05:57;18.20;80.30
81307;DHT22;70775;50.846;3.224;2023-06-26T02:08:23;18.20;80.20
81307;DHT22;70775;50.846;3.224;2023-06-26T02:10:49;18.30;80.00
81307;DHT22;70775;50.846;3.224;2023-06-26T02:13:14;18.20;80.30
81307;DHT22;70775;50.846;3.224;2023-06-26T02:15:40;18.10;80.40
81307;DHT22;70775;50.846;3.224;2023-06-26T02:18:05;18.10;80.40
81307;DHT22;70775;50.846;3.224;2023-06-26T02:20:31;18.10;80.30
81307;DHT22;70775;50.846;3.224;2023-06-26T02:22:58;18.10;80.50
81307;DHT22;70775;50.846;3.224;2023-06-26T02:25:24;18.00;80.60
81307;DHT22;70775;50.846;3.224;2023-06-26T02:27:50;17.90;80.50
81307;DHT22;70775;50.846;3.224;2023-06-26T02:30:15;17.90;80.50
81307;DHT22;70775;50.846;3.224;2023-06-26T02:32:41;17.80;80.70
81307;DHT22;70775;50.846;3.224;2023-06-26T02:35:07;17.90;80.70
81307;DHT22;70775;50.846;3.224;2023-06-26T02:37:33;17.90;80.50
81307;DHT22;70775;50.846;3.224;2023-06-26T02:39:59;17.90;80.50
81307;DHT22;70775;50.846;3.224;2023-06-26T02:42:24;17.90;80.20
81307;DHT22;70775;50.846;3.224;2023-06-26T02:44:50;17.80;80.50
81307;DHT22;70775;50.846;3.224;2023-06-26T02:47:15;17.70;81.00
81307;DHT22;70775;50.846;3.224;2023-06-26T02:49:41;17.60;81.10
81307;DHT22;70775;50.846;3.224;2023-06-26T02:52:07;17.60;82.30
81307;DHT22;70775;50.846;3.224;2023-06-26T02:54:32;17.50;81.00
81307;DHT22;70775;50.846;3.224;2023-06-26T02:56:58;17.50;80.60
81307;DHT22;70775;50.846;3.224;2023-06-26T02:59:25;17.60;80.20
81307;DHT22;70775;50.846;3.224;2023-06-26T03:01:51;17.50;79.60
81307;DHT22;70775;50.846;3.224;2023-06-26T03:04:17;17.60;79.20
81307;DHT22;70775;50.846;3.224;2023-06-26T03:06:43;17.80;77.30
81307;DHT22;70775;50.846;3.224;2023-06-26T03:09:09;17.70;76.80
81307;DHT22;70775;50.846;3.224;2023-06-26T03:11:35;17.70;76.40
81307;DHT22;70775;50.846;3.224;2023-06-26T03:14:00;17.70;75.90
81307;DHT22;70775;50.846;3.224;2023-06-26T03:16:26;17.70;75.30
81307;DHT22;70775;50.846;3.224;2023-06-26T03:18:52;17.80;75.00
81307;DHT22;70775;50.846;3.224;2023-06-26T03:21:17;17.80;74.80
81307;DHT22;70775;50.846;3.224;2023-06-26T03:23:43;17.70;74.10
81307;DHT22;70775;50.846;3.224;2023-06-26T03:26:09;17.60;74.80
81307;DHT22;70775;50.846;3.224;2023-06-26T03:28:34;17.50;75.10
81307;DHT22;70775;50.846;3.224;2023-06-26T03:31:00;17.40;74.80
81307;DHT22;70775;50.846;3.224;2023-06-26T03:33:26;17.50;74.40
81307;DHT22;70775;50.846;3.224;2023-06-26T03:35:52;17.50;73.80
81307;DHT22;70775;50.846;3.224;2023-06-26T03:38:17;17.40;73.70
81307;DHT22;70775;50.846;3.224;2023-06-26T03:40:43;17.40;73.20
81307;DHT22;70775;50.846;3.224;2023-06-26T03:43:09;17.40;73.00
81307;DHT22;70775;50.846;3.224;2023-06-26T03:45:34;17.40;72.60
81307;DHT22;70775;50.846;3.224;2023-06-26T03:48:00;17.40;72.10
81307;DHT22;70775;50.846;3.224;2023-06-26T03:50:25;17.40;71.00
81307;DHT22;70775;50.846;3.224;2023-06-26T03:52:51;17.50;71.60
81307;DHT22;70775;50.846;3.224;2023-06-26T03:55:17;17.50;70.60
81307;DHT22;70775;50.846;3.224;2023-06-26T03:57:43;17.40;70.30
81307;DHT22;70775;50.846;3.224;2023-06-26T04:00:09;17.30;71.00
81307;DHT22;70775;50.846;3.224;2023-06-26T04:02:36;17.30;70.40
81307;DHT22;70775;50.846;3.224;2023-06-26T04:05:02;17.30;70.30
81307;DHT22;70775;50.846;3.224;2023-06-26T04:07:29;17.30;70.10
81307;DHT22;70775;50.846;3.224;2023-06-26T04:09:59;17.20;70.00
81307;DHT22;70775;50.846;3.224;2023-06-26T04:12:24;17.20;69.80
81307;DHT22;70775;50.846;3.224;2023-06-26T04:14:50;17.10;70.40
81307;DHT22;70775;50.846;3.224;2023-06-26T04:17:16;17.20;69.60
81307;DHT22;70775;50.846;3.224;2023-06-26T04:19:41;17.20;69.60
81307;DHT22;70775;50.846;3.224;2023-06-26T04:22:07;17.30;69.30
81307;DHT22;70775;50.846;3.224;2023-06-26T04:24:33;17.20;69.40
81307;DHT22;70775;50.846;3.224;2023-06-26T04:26:58;17.20;69.30
81307;DHT22;70775;50.846;3.224;2023-06-26T04:29:26;17.40;67.90
81307;DHT22;70775;50.846;3.224;2023-06-26T04:31:52;17.40;67.90
81307;DHT22;70775;50.846;3.224;2023-06-26T04:34:27;17.40;67.80
81307;DHT22;70775;50.846;3.224;2023-06-26T04:36:53;17.30;67.60
81307;DHT22;70775;50.846;3.224;2023-06-26T04:39:19;17.30;67.90
81307;DHT22;70775;50.846;3.224;2023-06-26T04:41:45;17.30;68.20
81307;DHT22;70775;50.846;3.224;2023-06-26T04:44:11;17.30;68.10
81307;DHT22;70775;50.846;3.224;2023-06-26T04:46:37;17.40;67.80
81307;DHT22;70775;50.846;3.224;2023-06-26T04:49:07;17.30;67.40
81307;DHT22;70775;50.846;3.224;2023-06-26T04:51:33;17.30;67.70
81307;DHT22;70775;50.846;3.224;2023-06-26T04:53:58;17.20;67.40
81307;DHT22;70775;50.846;3.224;2023-06-26T04:56:24;17.20;67.60
81307;DHT22;70775;50.846;3.224;2023-06-26T04:58:50;17.30;67.70
81307;DHT22;70775;50.846;3.224;2023-06-26T05:01:15;17.40;66.90
81307;DHT22;70775;50.846;3.224;2023-06-26T05:03:41;17.40;66.90
81307;DHT22;70775;50.846;3.224;2023-06-26T05:06:07;17.50;66.70
81307;DHT22;70775;50.846;3.224;2023-06-26T05:08:32;17.40;66.90
81307;DHT22;70775;50.846;3.224;2023-06-26T05:10:58;17.40;66.60
81307;DHT22;70775;50.846;3.224;2023-06-26T05:13:27;17.50;66.40
81307;DHT22;70775;50.846;3.224;2023-06-26T05:15:53;17.50;67.20
81307;DHT22;70775;50.846;3.224;2023-06-26T05:18:19;17.50;65.90
81307;DHT22;70775;50.846;3.224;2023-06-26T05:20:44;17.50;66.50
81307;DHT22;70775;50.846;3.224;2023-06-26T05:23:13;17.50;65.90
81307;DHT22;70775;50.846;3.224;2023-06-26T05:25:39;17.50;65.70
81307;DHT22;70775;50.846;3.224;2023-06-26T05:28:05;17.60;65.40
81307;DHT22;70775;50.846;3.224;2023-06-26T05:30:32;17.70;65.40
81307;DHT22;70775;50.846;3.224;2023-06-26T05:33:01;17.60;65.30
81307;DHT22;70775;50.846;3.224;2023-06-26T05:35:30;17.60;66.00
81307;DHT22;70775;50.846;3.224;2023-06-26T05:37:57;17.60;66.20
81307;DHT22;70775;50.846;3.224;2023-06-26T05:40:24;17.70;65.40
81307;DHT22;70775;50.846;3.224;2023-06-26T05:42:50;17.80;65.90
81307;DHT22;70775;50.846;3.224;2023-06-26T05:45:16;17.80;65.30
81307;DHT22;70775;50.846;3.224;2023-06-26T05:47:42;17.90;65.50
81307;DHT22;70775;50.846;3.224;2023-06-26T05:50:09;17.90;65.30
81307;DHT22;70775;50.846;3.224;2023-06-26T05:52:35;17.90;65.00
81307;DHT22;70775;50.846;3.224;2023-06-26T05:55:02;17.80;65.60
81307;DHT22;70775;50.846;3.224;2023-06-26T05:57:29;17.80;65.50
81307;DHT22;70775;50.846;3.224;2023-06-26T05:59:56;17.70;65.70
81307;DHT22;70775;50.846;3.224;2023-06-26T06:02:21;17.70;66.40
81307;DHT22;70775;50.846;3.224;2023-06-26T06:04:47;17.90;66.30
81307;DHT22;70775;50.846;3.224;2023-06-26T06:07:13;18.00;65.70
81307;DHT22;70775;50.846;3.224;2023-06-26T06:09:39;18.00;65.70
81307;DHT22;70775;50.846;3.224;2023-06-26T06:12:06;18.10;65.40
81307;DHT22;70775;50.846;3.224;2023-06-26T06:14:35;18.10;65.50
81307;DHT22;70775;50.846;3.224;2023-06-26T06:17:01;18.10;65.80
81307;DHT22;70775;50.846;3.224;2023-06-26T06:19:27;18.10;66.00
81307;DHT22;70775;50.846;3.224;2023-06-26T06:25:15;18.20;65.80
81307;DHT22;70775;50.846;3.224;2023-06-26T06:27:41;18.40;65.60
81307;DHT22;70775;50.846;3.224;2023-06-26T06:30:08;18.50;65.40
81307;DHT22;70775;50.846;3.224;2023-06-26T06:32:34;18.50;65.40
81307;DHT22;70775;50.846;3.224;2023-06-26T06:35:00;18.50;65.00
81307;DHT22;70775;50.846;3.224;2023-06-26T06:37:29;18.40;66.00
81307;DHT22;70775;50.846;3.224;2023-06-26T06:39:56;18.40;66.00
81307;DHT22;70775;50.846;3.224;2023-06-26T06:42:23;18.60;66.10
81307;DHT22;70775;50.846;3.224;2023-06-26T06:44:49;18.60;65.50
81307;DHT22;70775;50.846;3.224;2023-06-26T06:47:14;18.60;65.70
81307;DHT22;70775;50.846;3.224;2023-06-26T06:49:40;18.70;66.20
81307;DHT22;70775;50.846;3.224;2023-06-26T06:52:05;18.90;64.80
81307;DHT22;70775;50.846;3.224;2023-06-26T06:54:31;18.90;64.60
81307;DHT22;70775;50.846;3.224;2023-06-26T06:56:57;18.90;64.70
81307;DHT22;70775;50.846;3.224;2023-06-26T06:59:22;18.90;64.90
81307;DHT22;70775;50.846;3.224;2023-06-26T07:01:48;18.80;66.60
81307;DHT22;70775;50.846;3.224;2023-06-26T07:04:13;19.00;65.30
81307;DHT22;70775;50.846;3.224;2023-06-26T07:06:40;19.00;64.60
81307;DHT22;70775;50.846;3.224;2023-06-26T07:09:06;19.20;63.80
81307;DHT22;70775;50.846;3.224;2023-06-26T07:11:32;19.20;64.50
81307;DHT22;70775;50.846;3.224;2023-06-26T07:13:57;19.40;63.80
81307;DHT22;70775;50.846;3.224;2023-06-26T07:16:23;19.30;62.80
81307;DHT22;70775;50.846;3.224;2023-06-26T07:18:49;19.20;62.40
81307;DHT22;70775;50.846;3.224;2023-06-26T07:21:15;19.10;62.60
81307;DHT22;70775;50.846;3.224;2023-06-26T07:23:41;19.20;62.60
81307;DHT22;70775;50.846;3.224;2023-06-26T07:26:06;19.30;62.10
81307;DHT22;70775;50.846;3.224;2023-06-26T07:28:32;19.40;62.00
81307;DHT22;70775;50.846;3.224;2023-06-26T07:34:21;19.60;62.60
81307;DHT22;70775;50.846;3.224;2023-06-26T07:36:49;19.70;61.80
81307;DHT22;70775;50.846;3.224;2023-06-26T07:39:15;19.80;62.50
81307;DHT22;70775;50.846;3.224;2023-06-26T07:41:40;19.80;61.60
81307;DHT22;70775;50.846;3.224;2023-06-26T07:44:06;19.80;61.90
81307;DHT22;70775;50.846;3.224;2023-06-26T07:46:32;19.80;61.60
81307;DHT22;70775;50.846;3.224;2023-06-26T07:48:57;19.80;61.60
81307;DHT22;70775;50.846;3.224;2023-06-26T07:51:23;19.90;61.60
81307;DHT22;70775;50.846;3.224;2023-06-26T07:53:49;20.00;61.90
81307;DHT22;70775;50.846;3.224;2023-06-26T07:56:16;20.00;60.20
81307;DHT22;70775;50.846;3.224;2023-06-26T07:58:42;20.20;60.20
81307;DHT22;70775;50.846;3.224;2023-06-26T08:01:07;20.20;60.60
81307;DHT22;70775;50.846;3.224;2023-06-26T08:03:33;20.40;59.50
81307;DHT22;70775;50.846;3.224;2023-06-26T08:05:58;20.30;59.10
81307;DHT22;70775;50.846;3.224;2023-06-26T08:08:26;20.00;60.40
81307;DHT22;70775;50.846;3.224;2023-06-26T08:10:52;20.10;61.00
81307;DHT22;70775;50.846;3.224;2023-06-26T08:13:17;20.20;59.60
81307;DHT22;70775;50.846;3.224;2023-06-26T08:15:43;20.40;59.60
81307;DHT22;70775;50.846;3.224;2023-06-26T08:18:09;20.40;56.70
81307;DHT22;70775;50.846;3.224;2023-06-26T08:20:34;20.30;58.10
81307;DHT22;70775;50.846;3.224;2023-06-26T08:23:04;20.40;58.50
81307;DHT22;70775;50.846;3.224;2023-06-26T08:25:29;20.60;59.20
81307;DHT22;70775;50.846;3.224;2023-06-26T08:27:55;20.70;57.20
81307;DHT22;70775;50.846;3.224;2023-06-26T08:30:21;20.70;55.70
81307;DHT22;70775;50.846;3.224;2023-06-26T08:32:47;20.60;57.60
81307;DHT22;70775;50.846;3.224;2023-06-26T08:35:13;20.60;58.20
81307;DHT22;70775;50.846;3.224;2023-06-26T08:37:38;20.60;58.40
81307;DHT22;70775;50.846;3.224;2023-06-26T08:40:05;20.90;58.40
81307;DHT22;70775;50.846;3.224;2023-06-26T08:42:31;21.10;57.80
81307;DHT22;70775;50.846;3.224;2023-06-26T08:44:57;21.00;55.60
81307;DHT22;70775;50.846;3.224;2023-06-26T08:47:23;20.90;55.80
81307;DHT22;70775;50.846;3.224;2023-06-26T08:50:08;21.00;56.60
81307;DHT22;70775;50.846;3.224;2023-06-26T08:53:09;21.20;54.70
81307;DHT22;70775;50.846;3.224;2023-06-26T08:55:38;21.40;54.80
81307;DHT22;70775;50.846;3.224;2023-06-26T08:58:06;21.00;53.50
81307;DHT22;70775;50.846;3.224;2023-06-26T09:00:32;21.00;54.60
81307;DHT22;70775;50.846;3.224;2023-06-26T09:02:58;20.80;54.00
81307;DHT22;70775;50.846;3.224;2023-06-26T09:05:26;20.90;55.40
81307;DHT22;70775;50.846;3.224;2023-06-26T09:07:52;21.10;54.20
81307;DHT22;70775;50.846;3.224;2023-06-26T09:10:21;21.50;52.90
81307;DHT22;70775;50.846;3.224;2023-06-26T09:12:47;21.50;51.00
81307;DHT22;70775;50.846;3.224;2023-06-26T09:15:14;21.60;51.10
81307;DHT22;70775;50.846;3.224;2023-06-26T09:17:41;21.60;50.00
81307;DHT22;70775;50.846;3.224;2023-06-26T09:20:08;21.80;51.20
81307;DHT22;70775;50.846;3.224;2023-06-26T09:22:36;21.60;50.60
81307;DHT22;70775;50.846;3.224;2023-06-26T09:25:05;21.70;52.00
81307;DHT22;70775;50.846;3.224;2023-06-26T09:27:31;21.80;50.30
81307;DHT22;70775;50.846;3.224;2023-06-26T09:29:57;22.10;49.50
81307;DHT22;70775;50.846;3.224;2023-06-26T09:32:25;22.30;48.80
81307;DHT22;70775;50.846;3.224;2023-06-26T09:34:53;22.10;49.40
81307;DHT22;70775;50.846;3.224;2023-06-26T09:37:19;21.90;49.60
81307;DHT22;70775;50.846;3.224;2023-06-26T09:39:45;22.20;48.70
81307;DHT22;70775;50.846;3.224;2023-06-26T09:42:13;22.20;48.30
81307;DHT22;70775;50.846;3.224;2023-06-26T09:44:49;22.50;48.80
81307;DHT22;70775;50.846;3.224;2023-06-26T09:47:18;22.30;47.80
81307;DHT22;70775;50.846;3.224;2023-06-26T09:49:43;22.00;49.30
81307;DHT22;70775;50.846;3.224;2023-06-26T09:52:09;21.80;49.50
81307;DHT22;70775;50.846;3.224;2023-06-26T09:54:35;21.90;49.70
81307;DHT22;70775;50.846;3.224;2023-06-26T09:57:08;22.10;48.80
81307;DHT22;70775;50.846;3.224;2023-06-26T09:59:37;22.40;47.80
81307;DHT22;70775;50.846;3.224;2023-06-26T10:02:03;22.20;47.50
81307;DHT22;70775;50.846;3.224;2023-06-26T10:04:29;22.20;49.00
81307;DHT22;70775;50.846;3.224;2023-06-26T10:06:56;22.40;47.00
81307;DHT22;70775;50.846;3.224;2023-06-26T10:09:24;22.40;47.20
81307;DHT22;70775;50.846;3.224;2023-06-26T10:11:57;22.40;46.20
81307;DHT22;70775;50.846;3.224;2023-06-26T10:14:26;22.20;46.40
81307;DHT22;70775;50.846;3.224;2023-06-26T10:16:57;22.20;47.40
81307;DHT22;70775;50.846;3.224;2023-06-26T10:19:24;22.00;47.60
81307;DHT22;70775;50.846;3.224;2023-06-26T10:21:53;22.10;46.10
81307;DHT22;70775;50.846;3.224;2023-06-26T10:24:21;22.20;46.80
81307;DHT22;70775;50.846;3.224;2023-06-26T10:26:50;22.40;46.60
81307;DHT22;70775;50.846;3.224;2023-06-26T10:29:17;22.70;47.10
81307;DHT22;70775;50.846;3.224;2023-06-26T10:31:48;22.80;45.20
81307;DHT22;70775;50.846;3.224;2023-06-26T10:34:14;22.40;44.80
81307;DHT22;70775;50.846;3.224;2023-06-26T10:36:41;22.50;45.40
81307;DHT22;70775;50.846;3.224;2023-06-26T10:39:07;22.50;45.10
81307;DHT22;70775;50.846;3.224;2023-06-26T10:41:37;22.70;45.20
81307;DHT22;70775;50.846;3.224;2023-06-26T10:44:19;22.60;45.60
81307;DHT22;70775;50.846;3.224;2023-06-26T10:46:53;22.60;45.80
81307;DHT22;70775;50.846;3.224;2023-06-26T10:49:25;23.00;46.00
81307;DHT22;70775;50.846;3.224;2023-06-26T10:51:51;22.80;45.20
81307;DHT22;70775;50.846;3.224;2023-06-26T10:54:20;22.70;46.00
81307;DHT22;70775;50.846;3.224;2023-06-26T10:56:50;22.50;45.70
81307;DHT22;70775;50.846;3.224;2023-06-26T10:59:21;21.90;47.20
81307;DHT22;70775;50.846;3.224;2023-06-26T11:01:54;21.80;47.60
81307;DHT22;70775;50.846;3.224;2023-06-26T11:04:37;21.80;47.10
81307;DHT22;70775;50.846;3.224;2023-06-26T11:07:17;22.10;47.80
81307;DHT22;70775;50.846;3.224;2023-06-26T11:10:07;22.60;46.50
81307;DHT22;70775;50.846;3.224;2023-06-26T11:12:38;23.20;44.90
81307;DHT22;70775;50.846;3.224;2023-06-26T11:17:37;23.70;44.90
81307;DHT22;70775;50.846;3.224;2023-06-26T11:20:07;23.90;41.50
81307;DHT22;70775;50.846;3.224;2023-06-26T11:22:35;23.40;42.20
81307;DHT22;70775;50.846;3.224;2023-06-26T11:25:02;23.50;42.40
81307;DHT22;70775;50.846;3.224;2023-06-26T11:27:42;23.60;42.90
81307;DHT22;70775;50.846;3.224;2023-06-26T11:30:10;23.50;42.70
81307;DHT22;70775;50.846;3.224;2023-06-26T11:32:40;23.70;42.40
81307;DHT22;70775;50.846;3.224;2023-06-26T11:35:06;23.70;40.50
81307;DHT22;70775;50.846;3.224;2023-06-26T11:37:32;23.60;41.40
81307;DHT22;70775;50.846;3.224;2023-06-26T11:39:58;23.50;40.10
81307;DHT22;70775;50.846;3.224;2023-06-26T11:42:24;23.60;41.00
81307;DHT22;70775;50.846;3.224;2023-06-26T11:44:53;23.90;41.00
81307;DHT22;70775;50.846;3.224;2023-06-26T11:47:20;24.00;40.10
81307;DHT22;70775;50.846;3.224;2023-06-26T11:49:47;24.50;40.80
81307;DHT22;70775;50.846;3.224;2023-06-26T11:52:14;24.90;39.80
81307;DHT22;70775;50.846;3.224;2023-06-26T11:54:40;24.40;39.30
81307;DHT22;70775;50.846;3.224;2023-06-26T11:57:06;23.90;39.80
81307;DHT22;70775;50.846;3.224;2023-06-26T11:59:36;23.70;39.70
81307;DHT22;70775;50.846;3.224;2023-06-26T12:02:08;23.90;40.70
81307;DHT22;70775;50.846;3.224;2023-06-26T12:04:37;24.10;38.20
81307;DHT22;70775;50.846;3.224;2023-06-26T12:07:06;23.90;39.90
81307;DHT22;70775;50.846;3.224;2023-06-26T12:09:37;24.30;40.20
81307;DHT22;70775;50.846;3.224;2023-06-26T12:12:08;24.40;37.80
81307;DHT22;70775;50.846;3.224;2023-06-26T12:14:41;24.40;37.70
81307;DHT22;70775;50.846;3.224;2023-06-26T12:17:12;24.30;38.00
81307;DHT22;70775;50.846;3.224;2023-06-26T12:19:42;24.60;39.10
81307;DHT22;70775;50.846;3.224;2023-06-26T12:22:10;24.60;39.50
81307;DHT22;70775;50.846;3.224;2023-06-26T12:24:38;24.40;38.20
81307;DHT22;70775;50.846;3.224;2023-06-26T12:30:28;24.10;39.60
81307;DHT22;70775;50.846;3.224;2023-06-26T12:32:53;23.90;40.40
81307;DHT22;70775;50.846;3.224;2023-06-26T12:35:19;23.70;40.60
81307;DHT22;70775;50.846;3.224;2023-06-26T12:40:56;23.50;41.70
81307;DHT22;70775;50.846;3.224;2023-06-26T12:43:23;23.60;42.40
81307;DHT22;70775;50.846;3.224;2023-06-26T12:45:53;23.50;42.50
81307;DHT22;70775;50.846;3.224;2023-06-26T12:48:40;23.40;42.90
81307;DHT22;70775;50.846;3.224;2023-06-26T12:51:18;23.40;42.60
81307;DHT22;70775;50.846;3.224;2023-06-26T12:53:53;23.90;42.40
81307;DHT22;70775;50.846;3.224;2023-06-26T12:56:19;24.30;41.90
81307;DHT22;70775;50.846;3.224;2023-06-26T12:58:45;24.10;42.40
81307;DHT22;70775;50.846;3.224;2023-06-26T13:04:34;24.60;40.00
81307;DHT22;70775;50.846;3.224;2023-06-26T13:07:13;24.20;41.20
81307;DHT22;70775;50.846;3.224;2023-06-26T13:09:39;24.00;41.80
81307;DHT22;70775;50.846;3.224;2023-06-26T13:12:07;23.50;42.40
81307;DHT22;70775;50.846;3.224;2023-06-26T13:14:33;23.30;44.20
81307;DHT22;70775;50.846;3.224;2023-06-26T13:17:00;23.40;46.10
81307;DHT22;70775;50.846;3.224;2023-06-26T13:19:26;23.50;45.40
81307;DHT22;70775;50.846;3.224;2023-06-26T13:21:52;23.50;46.40
81307;DHT22;70775;50.846;3.224;2023-06-26T13:24:21;23.50;46.80
81307;DHT22;70775;50.846;3.224;2023-06-26T13:26:54;23.40;45.80
81307;DHT22;70775;50.846;3.224;2023-06-26T13:29:20;23.30;46.10
81307;DHT22;70775;50.846;3.224;2023-06-26T13:35:09;23.40;43.90
81307;DHT22;70775;50.846;3.224;2023-06-26T13:37:35;23.50;43.60
81307;DHT22;70775;50.846;3.224;2023-06-26T13:40:02;23.30;44.30
81307;DHT22;70775;50.846;3.224;2023-06-26T13:42:29;23.20;44.70
81307;DHT22;70775;50.846;3.224;2023-06-26T13:44:54;23.30;44.70
81307;DHT22;70775;50.846;3.224;2023-06-26T13:47:20;23.40;43.80
81307;DHT22;70775;50.846;3.224;2023-06-26T13:49:46;23.40;42.60
81307;DHT22;70775;50.846;3.224;2023-06-26T13:52:12;23.50;44.00
81307;DHT22;70775;50.846;3.224;2023-06-26T13:54:38;23.70;44.00
81307;DHT22;70775;50.846;3.224;2023-06-26T13:57:06;24.00;43.70
81307;DHT22;70775;50.846;3.224;2023-06-26T13:59:36;24.10;42.40
81307;DHT22;70775;50.846;3.224;2023-06-26T14:02:02;23.90;41.90
81307;DHT22;70775;50.846;3.224;2023-06-26T14:04:28;23.70;42.20
81307;DHT22;70775;50.846;3.224;2023-06-26T14:06:53;23.40;43.60
81307;DHT22;70775;50.846;3.224;2023-06-26T14:09:19;23.50;44.00
81307;DHT22;70775;50.846;3.224;2023-06-26T14:11:45;23.60;43.40
81307;DHT22;70775;50.846;3.224;2023-06-26T14:14:11;23.70;42.20
81307;DHT22;70775;50.846;3.224;2023-06-26T14:16:39;23.70;41.50
81307;DHT22;70775;50.846;3.224;2023-06-26T14:19:05;23.80;42.90
81307;DHT22;70775;50.846;3.224;2023-06-26T14:21:31;23.90;41.20
81307;DHT22;70775;50.846;3.224;2023-06-26T14:23:58;23.90;41.30
81307;DHT22;70775;50.846;3.224;2023-06-26T14:26:24;24.10;42.80
81307;DHT22;70775;50.846;3.224;2023-06-26T14:28:50;24.00;44.20
81307;DHT22;70775;50.846;3.224;2023-06-26T14:31:16;23.90;43.60
81307;DHT22;70775;50.846;3.224;2023-06-26T14:33:41;23.60;43.80
81307;DHT22;70775;50.846;3.224;2023-06-26T14:36:07;23.70;44.70
81307;DHT22;70775;50.846;3.224;2023-06-26T14:38:33;23.80;44.20
81307;DHT22;70775;50.846;3.224;2023-06-26T14:40:58;23.90;44.60
81307;DHT22;70775;50.846;3.224;2023-06-26T14:43:24;24.10;42.40
81307;DHT22;70775;50.846;3.224;2023-06-26T14:45:50;24.40;42.10
81307;DHT22;70775;50.846;3.224;2023-06-26T14:48:16;24.40;42.80
81307;DHT22;70775;50.846;3.224;2023-06-26T14:50:41;24.50;43.50
81307;DHT22;70775;50.846;3.224;2023-06-26T14:53:07;24.80;43.00
81307;DHT22;70775;50.846;3.224;2023-06-26T14:55:32;24.30;42.30
81307;DHT22;70775;50.846;3.224;2023-06-26T14:57:58;23.90;43.20
81307;DHT22;70775;50.846;3.224;2023-06-26T15:00:24;23.90;44.70
81307;DHT22;70775;50.846;3.224;2023-06-26T15:02:50;24.20;44.90
81307;DHT22;70775;50.846;3.224;2023-06-26T15:05:19;24.60;44.60
81307;DHT22;70775;50.846;3.224;2023-06-26T15:07:45;24.40;44.30
81307;DHT22;70775;50.846;3.224;2023-06-26T15:10:10;24.20;44.40
81307;DHT22;70775;50.846;3.224;2023-06-26T15:12:36;24.10;44.90
81307;DHT22;70775;50.846;3.224;2023-06-26T15:15:02;24.10;44.80
81307;DHT22;70775;50.846;3.224;2023-06-26T15:17:27;24.10;44.10
81307;DHT22;70775;50.846;3.224;2023-06-26T15:19:53;23.90;45.70
81307;DHT22;70775;50.846;3.224;2023-06-26T15:22:21;23.70;45.80
81307;DHT22;70775;50.846;3.224;2023-06-26T15:24:47;23.60;47.70
81307;DHT22;70775;50.846;3.224;2023-06-26T15:27:13;23.60;46.90
81307;DHT22;70775;50.846;3.224;2023-06-26T15:29:38;23.40;46.50
81307;DHT22;70775;50.846;3.224;2023-06-26T15:32:04;23.50;46.90
81307;DHT22;70775;50.846;3.224;2023-06-26T15:34:30;23.40;46.70
81307;DHT22;70775;50.846;3.224;2023-06-26T15:36:56;23.50;46.70
81307;DHT22;70775;50.846;3.224;2023-06-26T15:39:21;23.50;48.20
81307;DHT22;70775;50.846;3.224;2023-06-26T15:41:47;23.70;47.00
81307;DHT22;70775;50.846;3.224;2023-06-26T15:44:13;23.60;46.10
81307;DHT22;70775;50.846;3.224;2023-06-26T15:46:39;23.30;45.70
81307;DHT22;70775;50.846;3.224;2023-06-26T15:49:04;23.20;47.00
81307;DHT22;70775;50.846;3.224;2023-06-26T15:51:30;23.30;47.70
81307;DHT22;70775;50.846;3.224;2023-06-26T15:53:58;23.00;47.90
81307;DHT22;70775;50.846;3.224;2023-06-26T15:56:24;22.80;48.80
81307;DHT22;70775;50.846;3.224;2023-06-26T15:58:50;22.80;49.00
81307;DHT22;70775;50.846;3.224;2023-06-26T16:01:16;22.80;48.60